Lee's Summit, MO

12:30 AM CDT on April 26, 2017 (GMT -0500)
Lee's Summit Municipal | | Change Station

Elev 1004 ft 38.96 °N, 94.37 °W | Updated 20 minutes ago

Light Rain
Light Rain
54 °F
Feels Like 54 °F
N
9
Wind Variable Wind from NNW

Today
High -- | Low -- °F
--% Chance of Precip.
Yesterday
High -- | Low -- °F
Precip. -- in
Pressure 29.50 in
Visibility 7.0 miles
Clouds Scattered Clouds 800 ft
Mostly Cloudy 1300 ft
Overcast 9500 ft
Dew Point 54 °F
Humidity 100%
Rainfall 0.00 in
Snow Depth Not available.
6:25 AM 8:05 PM
Waning Crescent, 0% visible
SPECI KLXT 260510Z AUTO 34008KT 7SM -RA SCT008 BKN013 OVC095 12/12 A2950 RMK AO2 LTG DSNT ALQDS P0003 T01220122
Pressure 29.50 in
Visibility 7.0 miles
Clouds Scattered Clouds 800 ft
Mostly Cloudy 1300 ft
Overcast 9500 ft
Dew Point 54 °F
Humidity 100%
Rainfall 0.00 in
Snow Depth Not available.
6:25 AM 8:05 PM
Waning Crescent, 0% visible
SPECI KLXT 260510Z AUTO 34008KT 7SM -RA SCT008 BKN013 OVC095 12/12 A2950 RMK AO2 LTG DSNT ALQDS P0003 T01220122

Get Severe Weather Alerts

Thanks for signing up!

Be on the lookout for a verification email in your inbox.

You'll start receiving the daily forecast at 8 AM.

×

10-Day Weather Forecast

Almanac

Astronomy

Apr. 26, 2017 Rise Set
Actual Time
Civil Twilight
Nautical Twilight
Astronomical Twilight
Moon
Length of Visible Light
Length of Day
Tomorrow will be .
, % of the Moon is Illuminated

Today's Extremes

State Highs State Lows

Community

WunderPhotos

WunderBlog® & News

Nearby

Air Quality

  Air Quality AQ Index Pollutant
Not available.

Snow Depth

Station Depth Elevation

Earthquake Activity

City Distance Mag. Time & Date
Minimum magnitude displayed is 2.5.

Coastal Water Temperatures

Place Temperature

Stations

Nearby Weather Stations

Station Location Temp. Windchill Dew Point Humidity Wind Precip. Elev Updated Type
                   

Watches & Warnings

There are currently no watches in effect.